sensor_id;sensor_type;location;lat;lon;timestamp;P1;durP1;ratioP1;P2;durP2;ratioP2
9559;SDS011;4818;50.860;4.648;2022-07-04T00:00:47;4.25;;;0.40;;
9559;SDS011;4818;50.860;4.648;2022-07-04T00:03:13;2.88;;;0.30;;
9559;SDS011;4818;50.860;4.648;2022-07-04T00:05:39;1.15;;;0.20;;
9559;SDS011;4818;50.860;4.648;2022-07-04T00:08:06;2.33;;;0.30;;
9559;SDS011;4818;50.860;4.648;2022-07-04T00:10:32;1.10;;;0.30;;
9559;SDS011;4818;50.860;4.648;2022-07-04T00:12:58;2.67;;;0.30;;
9559;SDS011;4818;50.860;4.648;2022-07-04T00:15:24;1.00;;;0.30;;
9559;SDS011;4818;50.860;4.648;2022-07-04T00:17:51;1.23;;;0.30;;
9559;SDS011;4818;50.860;4.648;2022-07-04T00:20:17;4.78;;;0.77;;
9559;SDS011;4818;50.860;4.648;2022-07-04T00:22:44;2.28;;;0.52;;
9559;SDS011;4818;50.860;4.648;2022-07-04T00:25:10;4.95;;;0.50;;
9559;SDS011;4818;50.860;4.648;2022-07-04T00:27:36;1.67;;;0.40;;
9559;SDS011;4818;50.860;4.648;2022-07-04T00:30:03;1.50;;;0.50;;
9559;SDS011;4818;50.860;4.648;2022-07-04T00:32:30;1.35;;;0.60;;
9559;SDS011;4818;50.860;4.648;2022-07-04T00:34:56;2.20;;;0.40;;
9559;SDS011;4818;50.860;4.648;2022-07-04T00:37:22;1.60;;;0.40;;
9559;SDS011;4818;50.860;4.648;2022-07-04T00:39:48;1.73;;;0.45;;
9559;SDS011;4818;50.860;4.648;2022-07-04T00:42:15;1.10;;;0.60;;
9559;SDS011;4818;50.860;4.648;2022-07-04T00:44:41;2.88;;;0.30;;
9559;SDS011;4818;50.860;4.648;2022-07-04T00:47:07;2.65;;;0.40;;
9559;SDS011;4818;50.860;4.648;2022-07-04T00:49:34;2.45;;;0.40;;
9559;SDS011;4818;50.860;4.648;2022-07-04T00:52:00;2.00;;;0.38;;
9559;SDS011;4818;50.860;4.648;2022-07-04T00:54:31;1.92;;;0.35;;
9559;SDS011;4818;50.860;4.648;2022-07-04T00:56:58;1.67;;;0.50;;
9559;SDS011;4818;50.860;4.648;2022-07-04T00:59:25;2.63;;;0.60;;
9559;SDS011;4818;50.860;4.648;2022-07-04T01:01:51;2.97;;;0.55;;
9559;SDS011;4818;50.860;4.648;2022-07-04T01:04:18;3.30;;;0.50;;
9559;SDS011;4818;50.860;4.648;2022-07-04T01:06:44;2.03;;;0.40;;
9559;SDS011;4818;50.860;4.648;2022-07-04T01:09:11;4.00;;;0.50;;
9559;SDS011;4818;50.860;4.648;2022-07-04T01:11:37;1.35;;;0.60;;
9559;SDS011;4818;50.860;4.648;2022-07-04T01:14:03;2.25;;;0.35;;
9559;SDS011;4818;50.860;4.648;2022-07-04T01:16:31;3.28;;;1.35;;
9559;SDS011;4818;50.860;4.648;2022-07-04T01:18:58;2.28;;;0.52;;
9559;SDS011;4818;50.860;4.648;2022-07-04T01:21:24;6.13;;;0.50;;
9559;SDS011;4818;50.860;4.648;2022-07-04T01:23:50;2.15;;;0.45;;
9559;SDS011;4818;50.860;4.648;2022-07-04T01:26:17;1.65;;;0.60;;
9559;SDS011;4818;50.860;4.648;2022-07-04T01:28:43;1.33;;;0.40;;
9559;SDS011;4818;50.860;4.648;2022-07-04T01:31:10;1.08;;;0.30;;
9559;SDS011;4818;50.860;4.648;2022-07-04T01:33:36;2.08;;;0.40;;
9559;SDS011;4818;50.860;4.648;2022-07-04T01:36:02;2.75;;;0.40;;
9559;SDS011;4818;50.860;4.648;2022-07-04T01:38:29;3.13;;;0.50;;
9559;SDS011;4818;50.860;4.648;2022-07-04T01:40:55;2.75;;;0.50;;
9559;SDS011;4818;50.860;4.648;2022-07-04T01:43:21;2.83;;;0.30;;
9559;SDS011;4818;50.860;4.648;2022-07-04T01:45:47;1.17;;;0.40;;
9559;SDS011;4818;50.860;4.648;2022-07-04T01:48:13;1.80;;;0.50;;
9559;SDS011;4818;50.860;4.648;2022-07-04T01:50:40;1.63;;;0.40;;
9559;SDS011;4818;50.860;4.648;2022-07-04T01:53:06;0.68;;;0.30;;
9559;SDS011;4818;50.860;4.648;2022-07-04T01:55:32;2.83;;;0.30;;
9559;SDS011;4818;50.860;4.648;2022-07-04T01:57:59;1.05;;;0.63;;
9559;SDS011;4818;50.860;4.648;2022-07-04T02:00:25;1.35;;;0.30;;
9559;SDS011;4818;50.860;4.648;2022-07-04T02:03:10;3.60;;;0.40;;
9559;SDS011;4818;50.860;4.648;2022-07-04T02:05:37;3.80;;;0.57;;
9559;SDS011;4818;50.860;4.648;2022-07-04T02:08:04;3.03;;;0.80;;
9559;SDS011;4818;50.860;4.648;2022-07-04T02:10:30;1.35;;;0.30;;
9559;SDS011;4818;50.860;4.648;2022-07-04T02:12:56;2.45;;;0.50;;
9559;SDS011;4818;50.860;4.648;2022-07-04T02:15:39;5.15;;;0.75;;
9559;SDS011;4818;50.860;4.648;2022-07-04T02:18:09;1.40;;;0.50;;
9559;SDS011;4818;50.860;4.648;2022-07-04T02:20:35;1.13;;;0.32;;
9559;SDS011;4818;50.860;4.648;2022-07-04T02:23:02;2.95;;;0.50;;
9559;SDS011;4818;50.860;4.648;2022-07-04T02:25:29;2.75;;;0.30;;
9559;SDS011;4818;50.860;4.648;2022-07-04T02:27:55;2.03;;;0.40;;
9559;SDS011;4818;50.860;4.648;2022-07-04T02:30:22;1.83;;;0.60;;
9559;SDS011;4818;50.860;4.648;2022-07-04T02:32:48;2.00;;;0.50;;
9559;SDS011;4818;50.860;4.648;2022-07-04T02:35:15;3.72;;;0.60;;
9559;SDS011;4818;50.860;4.648;2022-07-04T02:37:41;4.32;;;0.30;;
9559;SDS011;4818;50.860;4.648;2022-07-04T02:40:07;2.25;;;0.65;;
9559;SDS011;4818;50.860;4.648;2022-07-04T02:42:34;3.38;;;0.50;;
9559;SDS011;4818;50.860;4.648;2022-07-04T02:45:00;3.67;;;0.68;;
9559;SDS011;4818;50.860;4.648;2022-07-04T02:47:27;1.73;;;0.40;;
9559;SDS011;4818;50.860;4.648;2022-07-04T02:49:53;3.30;;;0.47;;
9559;SDS011;4818;50.860;4.648;2022-07-04T02:52:19;3.65;;;0.65;;
9559;SDS011;4818;50.860;4.648;2022-07-04T02:54:46;3.05;;;0.60;;
9559;SDS011;4818;50.860;4.648;2022-07-04T02:57:13;2.40;;;0.50;;
9559;SDS011;4818;50.860;4.648;2022-07-04T02:59:40;3.72;;;0.57;;
9559;SDS011;4818;50.860;4.648;2022-07-04T03:02:06;3.72;;;0.70;;
9559;SDS011;4818;50.860;4.648;2022-07-04T03:04:32;1.98;;;0.60;;
9559;SDS011;4818;50.860;4.648;2022-07-04T03:06:59;1.13;;;0.40;;
9559;SDS011;4818;50.860;4.648;2022-07-04T03:09:25;2.25;;;0.50;;
9559;SDS011;4818;50.860;4.648;2022-07-04T03:11:54;1.10;;;0.47;;
9559;SDS011;4818;50.860;4.648;2022-07-04T03:14:21;1.58;;;0.40;;
9559;SDS011;4818;50.860;4.648;2022-07-04T03:16:47;1.08;;;0.40;;
9559;SDS011;4818;50.860;4.648;2022-07-04T03:19:13;3.30;;;0.50;;
9559;SDS011;4818;50.860;4.648;2022-07-04T03:21:40;1.75;;;0.43;;
9559;SDS011;4818;50.860;4.648;2022-07-04T03:24:06;3.00;;;0.50;;
9559;SDS011;4818;50.860;4.648;2022-07-04T03:26:34;1.52;;;0.50;;
9559;SDS011;4818;50.860;4.648;2022-07-04T03:29:00;3.33;;;0.60;;
9559;SDS011;4818;50.860;4.648;2022-07-04T03:31:27;3.38;;;0.45;;
9559;SDS011;4818;50.860;4.648;2022-07-04T03:33:54;2.53;;;0.93;;
9559;SDS011;4818;50.860;4.648;2022-07-04T03:36:21;3.55;;;0.50;;
9559;SDS011;4818;50.860;4.648;2022-07-04T03:38:47;2.15;;;0.70;;
9559;SDS011;4818;50.860;4.648;2022-07-04T03:41:13;2.28;;;0.50;;
9559;SDS011;4818;50.860;4.648;2022-07-04T03:43:39;4.22;;;0.63;;
9559;SDS011;4818;50.860;4.648;2022-07-04T03:46:06;2.55;;;0.50;;
9559;SDS011;4818;50.860;4.648;2022-07-04T03:48:32;2.80;;;0.80;;
9559;SDS011;4818;50.860;4.648;2022-07-04T03:50:58;1.85;;;0.50;;
9559;SDS011;4818;50.860;4.648;2022-07-04T03:53:25;2.60;;;1.05;;
9559;SDS011;4818;50.860;4.648;2022-07-04T03:55:51;3.53;;;0.50;;
9559;SDS011;4818;50.860;4.648;2022-07-04T03:58:17;1.88;;;0.50;;
9559;SDS011;4818;50.860;4.648;2022-07-04T04:00:43;5.75;;;0.50;;
9559;SDS011;4818;50.860;4.648;2022-07-04T04:03:09;2.00;;;0.45;;
9559;SDS011;4818;50.860;4.648;2022-07-04T04:05:55;2.97;;;0.60;;
9559;SDS011;4818;50.860;4.648;2022-07-04T04:08:21;2.70;;;0.93;;
9559;SDS011;4818;50.860;4.648;2022-07-04T04:10:48;3.40;;;0.57;;
9559;SDS011;4818;50.860;4.648;2022-07-04T04:13:15;3.63;;;0.40;;
9559;SDS011;4818;50.860;4.648;2022-07-04T04:15:42;6.82;;;0.60;;
9559;SDS011;4818;50.860;4.648;2022-07-04T04:18:08;2.72;;;0.60;;
9559;SDS011;4818;50.860;4.648;2022-07-04T04:20:34;4.20;;;0.68;;
9559;SDS011;4818;50.860;4.648;2022-07-04T04:23:00;4.00;;;0.50;;
9559;SDS011;4818;50.860;4.648;2022-07-04T04:25:26;3.17;;;0.30;;
9559;SDS011;4818;50.860;4.648;2022-07-04T04:27:53;4.57;;;0.50;;
9559;SDS011;4818;50.860;4.648;2022-07-04T04:30:19;3.13;;;0.45;;
9559;SDS011;4818;50.860;4.648;2022-07-04T04:32:45;1.75;;;0.50;;
9559;SDS011;4818;50.860;4.648;2022-07-04T04:35:11;4.15;;;0.70;;
9559;SDS011;4818;50.860;4.648;2022-07-04T04:37:38;4.13;;;0.50;;
9559;SDS011;4818;50.860;4.648;2022-07-04T04:40:04;1.73;;;0.60;;
9559;SDS011;4818;50.860;4.648;2022-07-04T04:42:30;2.55;;;0.57;;
9559;SDS011;4818;50.860;4.648;2022-07-04T04:44:57;2.35;;;0.57;;
9559;SDS011;4818;50.860;4.648;2022-07-04T04:47:23;1.38;;;0.50;;
9559;SDS011;4818;50.860;4.648;2022-07-04T04:49:49;4.32;;;0.50;;
9559;SDS011;4818;50.860;4.648;2022-07-04T04:52:15;3.72;;;0.50;;
9559;SDS011;4818;50.860;4.648;2022-07-04T04:54:42;0.98;;;0.50;;
9559;SDS011;4818;50.860;4.648;2022-07-04T04:57:08;3.03;;;0.82;;
9559;SDS011;4818;50.860;4.648;2022-07-04T04:59:35;1.55;;;0.43;;
9559;SDS011;4818;50.860;4.648;2022-07-04T05:02:01;2.60;;;0.47;;
9559;SDS011;4818;50.860;4.648;2022-07-04T05:04:27;6.70;;;0.80;;
9559;SDS011;4818;50.860;4.648;2022-07-04T05:06:54;1.08;;;0.50;;
9559;SDS011;4818;50.860;4.648;2022-07-04T05:09:20;2.30;;;0.38;;
9559;SDS011;4818;50.860;4.648;2022-07-04T05:11:47;1.10;;;0.43;;
9559;SDS011;4818;50.860;4.648;2022-07-04T05:14:13;7.32;;;0.73;;
9559;SDS011;4818;50.860;4.648;2022-07-04T05:16:42;2.85;;;0.30;;
9559;SDS011;4818;50.860;4.648;2022-07-04T05:19:14;2.67;;;0.40;;
9559;SDS011;4818;50.860;4.648;2022-07-04T05:21:40;3.17;;;0.52;;
9559;SDS011;4818;50.860;4.648;2022-07-04T05:24:06;3.67;;;0.38;;
9559;SDS011;4818;50.860;4.648;2022-07-04T05:26:33;3.40;;;0.30;;
9559;SDS011;4818;50.860;4.648;2022-07-04T05:29:20;3.83;;;0.30;;
9559;SDS011;4818;50.860;4.648;2022-07-04T05:31:46;1.33;;;0.40;;
9559;SDS011;4818;50.860;4.648;2022-07-04T05:34:13;1.98;;;0.35;;
9559;SDS011;4818;50.860;4.648;2022-07-04T05:36:39;1.20;;;0.25;;
9559;SDS011;4818;50.860;4.648;2022-07-04T05:39:05;6.32;;;0.57;;
9559;SDS011;4818;50.860;4.648;2022-07-04T05:41:31;1.73;;;0.30;;
9559;SDS011;4818;50.860;4.648;2022-07-04T05:43:58;3.78;;;0.40;;
9559;SDS011;4818;50.860;4.648;2022-07-04T05:46:25;4.53;;;0.40;;
9559;SDS011;4818;50.860;4.648;2022-07-04T05:48:51;1.55;;;0.40;;
9559;SDS011;4818;50.860;4.648;2022-07-04T05:51:18;2.65;;;0.50;;
9559;SDS011;4818;50.860;4.648;2022-07-04T05:53:44;1.23;;;0.30;;
9559;SDS011;4818;50.860;4.648;2022-07-04T05:56:10;4.30;;;0.60;;
9559;SDS011;4818;50.860;4.648;2022-07-04T05:58:36;3.88;;;0.52;;
9559;SDS011;4818;50.860;4.648;2022-07-04T06:01:03;3.75;;;0.40;;
9559;SDS011;4818;50.860;4.648;2022-07-04T06:03:29;1.55;;;0.30;;
9559;SDS011;4818;50.860;4.648;2022-07-04T06:05:55;1.83;;;0.30;;
9559;SDS011;4818;50.860;4.648;2022-07-04T06:08:22;2.03;;;0.30;;
9559;SDS011;4818;50.860;4.648;2022-07-04T06:10:49;3.88;;;0.60;;
9559;SDS011;4818;50.860;4.648;2022-07-04T06:13:15;4.50;;;0.40;;
9559;SDS011;4818;50.860;4.648;2022-07-04T06:15:41;1.17;;;0.30;;
9559;SDS011;4818;50.860;4.648;2022-07-04T06:18:07;2.47;;;0.40;;
9559;SDS011;4818;50.860;4.648;2022-07-04T06:20:34;3.72;;;0.25;;
9559;SDS011;4818;50.860;4.648;2022-07-04T06:23:00;3.35;;;0.30;;
9559;SDS011;4818;50.860;4.648;2022-07-04T06:25:26;1.80;;;0.20;;
9559;SDS011;4818;50.860;4.648;2022-07-04T06:27:53;2.53;;;0.40;;
9559;SDS011;4818;50.860;4.648;2022-07-04T06:30:19;1.80;;;0.20;;
9559;SDS011;4818;50.860;4.648;2022-07-04T06:32:46;3.28;;;0.20;;
9559;SDS011;4818;50.860;4.648;2022-07-04T06:35:13;2.72;;;0.20;;
9559;SDS011;4818;50.860;4.648;2022-07-04T06:37:58;1.75;;;0.22;;
9559;SDS011;4818;50.860;4.648;2022-07-04T06:40:24;1.42;;;0.30;;
9559;SDS011;4818;50.860;4.648;2022-07-04T06:42:51;1.27;;;0.47;;
9559;SDS011;4818;50.860;4.648;2022-07-04T06:45:17;3.72;;;0.32;;
9559;SDS011;4818;50.860;4.648;2022-07-04T06:47:43;3.42;;;0.30;;
9559;SDS011;4818;50.860;4.648;2022-07-04T06:50:12;2.17;;;0.30;;
9559;SDS011;4818;50.860;4.648;2022-07-04T06:52:38;1.65;;;0.20;;
9559;SDS011;4818;50.860;4.648;2022-07-04T06:55:05;1.38;;;0.22;;
9559;SDS011;4818;50.860;4.648;2022-07-04T06:57:32;3.50;;;0.40;;
9559;SDS011;4818;50.860;4.648;2022-07-04T06:59:58;4.18;;;0.20;;
9559;SDS011;4818;50.860;4.648;2022-07-04T07:02:25;0.57;;;0.15;;
9559;SDS011;4818;50.860;4.648;2022-07-04T07:04:51;1.50;;;0.20;;
9559;SDS011;4818;50.860;4.648;2022-07-04T07:07:20;1.10;;;0.20;;
9559;SDS011;4818;50.860;4.648;2022-07-04T07:09:46;1.35;;;0.40;;
9559;SDS011;4818;50.860;4.648;2022-07-04T07:12:13;1.60;;;0.20;;
9559;SDS011;4818;50.860;4.648;2022-07-04T07:14:39;1.95;;;0.30;;
9559;SDS011;4818;50.860;4.648;2022-07-04T07:17:05;4.38;;;0.20;;
9559;SDS011;4818;50.860;4.648;2022-07-04T07:19:33;5.00;;;0.50;;
9559;SDS011;4818;50.860;4.648;2022-07-04T07:21:59;3.92;;;0.30;;
9559;SDS011;4818;50.860;4.648;2022-07-04T07:24:26;0.60;;;0.13;;
9559;SDS011;4818;50.860;4.648;2022-07-04T07:26:55;2.00;;;0.30;;
9559;SDS011;4818;50.860;4.648;2022-07-04T07:29:21;3.90;;;0.63;;
9559;SDS011;4818;50.860;4.648;2022-07-04T07:31:48;7.65;;;0.50;;
9559;SDS011;4818;50.860;4.648;2022-07-04T07:34:14;3.40;;;0.20;;
9559;SDS011;4818;50.860;4.648;2022-07-04T07:36:41;2.25;;;0.22;;
9559;SDS011;4818;50.860;4.648;2022-07-04T07:39:07;0.90;;;0.10;;
9559;SDS011;4818;50.860;4.648;2022-07-04T07:41:33;1.98;;;0.52;;
9559;SDS011;4818;50.860;4.648;2022-07-04T07:43:59;2.20;;;0.20;;
9559;SDS011;4818;50.860;4.648;2022-07-04T07:46:25;2.00;;;0.20;;
9559;SDS011;4818;50.860;4.648;2022-07-04T07:48:51;1.17;;;0.20;;
9559;SDS011;4818;50.860;4.648;2022-07-04T07:51:18;2.85;;;0.10;;
9559;SDS011;4818;50.860;4.648;2022-07-04T07:53:44;2.33;;;0.20;;
9559;SDS011;4818;50.860;4.648;2022-07-04T07:56:10;1.88;;;0.28;;
9559;SDS011;4818;50.860;4.648;2022-07-04T07:58:37;2.47;;;0.20;;
9559;SDS011;4818;50.860;4.648;2022-07-04T08:01:04;2.75;;;0.20;;
9559;SDS011;4818;50.860;4.648;2022-07-04T08:03:30;1.90;;;0.20;;
9559;SDS011;4818;50.860;4.648;2022-07-04T08:06:15;1.77;;;0.20;;
9559;SDS011;4818;50.860;4.648;2022-07-04T08:08:42;2.92;;;0.30;;
9559;SDS011;4818;50.860;4.648;2022-07-04T08:11:09;3.53;;;0.30;;
9559;SDS011;4818;50.860;4.648;2022-07-04T08:13:35;2.10;;;0.20;;
9559;SDS011;4818;50.860;4.648;2022-07-04T08:16:02;2.00;;;0.20;;
9559;SDS011;4818;50.860;4.648;2022-07-04T08:18:28;0.82;;;0.17;;
9559;SDS011;4818;50.860;4.648;2022-07-04T08:20:54;2.28;;;0.20;;
9559;SDS011;4818;50.860;4.648;2022-07-04T08:23:21;3.40;;;0.20;;
9559;SDS011;4818;50.860;4.648;2022-07-04T08:25:47;1.52;;;0.10;;
9559;SDS011;4818;50.860;4.648;2022-07-04T08:28:13;0.73;;;0.10;;
9559;SDS011;4818;50.860;4.648;2022-07-04T08:30:39;1.73;;;0.20;;
9559;SDS011;4818;50.860;4.648;2022-07-04T08:33:06;1.48;;;0.10;;
9559;SDS011;4818;50.860;4.648;2022-07-04T08:35:32;0.65;;;0.10;;
9559;SDS011;4818;50.860;4.648;2022-07-04T08:37:59;2.60;;;0.20;;
9559;SDS011;4818;50.860;4.648;2022-07-04T08:40:26;1.90;;;0.30;;
9559;SDS011;4818;50.860;4.648;2022-07-04T08:42:53;15.73;;;1.10;;
9559;SDS011;4818;50.860;4.648;2022-07-04T08:45:26;1.60;;;0.10;;
9559;SDS011;4818;50.860;4.648;2022-07-04T08:48:00;2.72;;;0.20;;
9559;SDS011;4818;50.860;4.648;2022-07-04T08:50:33;1.17;;;0.10;;
9559;SDS011;4818;50.860;4.648;2022-07-04T08:53:02;0.80;;;0.10;;
9559;SDS011;4818;50.860;4.648;2022-07-04T08:55:30;5.53;;;0.20;;
9559;SDS011;4818;50.860;4.648;2022-07-04T08:58:15;1.23;;;0.20;;
9559;SDS011;4818;50.860;4.648;2022-07-04T09:00:54;4.80;;;0.17;;
9559;SDS011;4818;50.860;4.648;2022-07-04T09:03:20;1.55;;;0.15;;
9559;SDS011;4818;50.860;4.648;2022-07-04T09:05:48;1.10;;;0.20;;
9559;SDS011;4818;50.860;4.648;2022-07-04T09:08:14;1.40;;;0.20;;
9559;SDS011;4818;50.860;4.648;2022-07-04T09:10:41;2.45;;;0.20;;
9559;SDS011;4818;50.860;4.648;2022-07-04T09:13:08;2.22;;;0.10;;
9559;SDS011;4818;50.860;4.648;2022-07-04T09:15:34;2.30;;;0.30;;
9559;SDS011;4818;50.860;4.648;2022-07-04T09:18:01;0.55;;;0.10;;
9559;SDS011;4818;50.860;4.648;2022-07-04T09:20:28;0.80;;;0.13;;
9559;SDS011;4818;50.860;4.648;2022-07-04T09:22:56;1.23;;;0.10;;
9559;SDS011;4818;50.860;4.648;2022-07-04T09:25:23;2.33;;;0.20;;
9559;SDS011;4818;50.860;4.648;2022-07-04T09:27:50;1.17;;;0.13;;
9559;SDS011;4818;50.860;4.648;2022-07-04T09:30:23;2.20;;;0.20;;
9559;SDS011;4818;50.860;4.648;2022-07-04T09:32:50;1.40;;;0.20;;
9559;SDS011;4818;50.860;4.648;2022-07-04T09:35:24;2.30;;;0.20;;
9559;SDS011;4818;50.860;4.648;2022-07-04T09:37:51;1.02;;;0.30;;
9559;SDS011;4818;50.860;4.648;2022-07-04T09:40:31;1.40;;;0.20;;
9559;SDS011;4818;50.860;4.648;2022-07-04T09:43:10;1.92;;;0.15;;
9559;SDS011;4818;50.860;4.648;2022-07-04T09:45:36;1.00;;;0.20;;
9559;SDS011;4818;50.860;4.648;2022-07-04T09:48:18;1.10;;;0.10;;
9559;SDS011;4818;50.860;4.648;2022-07-04T09:50:44;3.35;;;0.20;;
9559;SDS011;4818;50.860;4.648;2022-07-04T09:53:11;1.92;;;0.20;;
9559;SDS011;4818;50.860;4.648;2022-07-04T09:55:38;1.23;;;0.20;;
9559;SDS011;4818;50.860;4.648;2022-07-04T09:58:05;1.08;;;0.40;;
9559;SDS011;4818;50.860;4.648;2022-07-04T10:05:48;1.63;;;0.10;;
9559;SDS011;4818;50.860;4.648;2022-07-04T10:08:27;1.15;;;0.20;;
9559;SDS011;4818;50.860;4.648;2022-07-04T10:10:56;3.92;;;0.35;;
9559;SDS011;4818;50.860;4.648;2022-07-04T10:13:23;0.85;;;0.10;;
9559;SDS011;4818;50.860;4.648;2022-07-04T10:15:49;0.80;;;0.20;;
9559;SDS011;4818;50.860;4.648;2022-07-04T10:18:20;0.57;;;0.10;;
9559;SDS011;4818;50.860;4.648;2022-07-04T10:20:47;2.25;;;0.20;;
9559;SDS011;4818;50.860;4.648;2022-07-04T10:23:14;0.75;;;0.10;;
9559;SDS011;4818;50.860;4.648;2022-07-04T10:25:41;0.50;;;0.20;;
9559;SDS011;4818;50.860;4.648;2022-07-04T10:28:08;0.52;;;0.08;;
9559;SDS011;4818;50.860;4.648;2022-07-04T10:30:35;0.90;;;0.13;;
9559;SDS011;4818;50.860;4.648;2022-07-04T10:33:06;1.15;;;0.10;;
9559;SDS011;4818;50.860;4.648;2022-07-04T10:35:49;0.60;;;0.10;;
9559;SDS011;4818;50.860;4.648;2022-07-04T10:38:19;0.68;;;0.17;;
9559;SDS011;4818;50.860;4.648;2022-07-04T10:40:47;1.27;;;0.20;;
9559;SDS011;4818;50.860;4.648;2022-07-04T10:46:42;1.05;;;0.10;;
9559;SDS011;4818;50.860;4.648;2022-07-04T10:48:49;0.60;;;0.10;;
9559;SDS011;4818;50.860;4.648;2022-07-04T10:51:18;1.15;;;0.20;;
9559;SDS011;4818;50.860;4.648;2022-07-04T10:53:58;0.85;;;0.20;;
9559;SDS011;4818;50.860;4.648;2022-07-04T10:58:51;1.60;;;0.40;;
9559;SDS011;4818;50.860;4.648;2022-07-04T11:01:17;2.03;;;0.40;;
9559;SDS011;4818;50.860;4.648;2022-07-04T11:03:45;2.45;;;0.40;;
9559;SDS011;4818;50.860;4.648;2022-07-04T11:17:12;2.60;;;1.10;;
9559;SDS011;4818;50.860;4.648;2022-07-04T11:19:40;5.55;;;1.55;;
9559;SDS011;4818;50.860;4.648;2022-07-04T11:22:07;5.38;;;2.47;;
9559;SDS011;4818;50.860;4.648;2022-07-04T11:24:34;3.75;;;2.33;;
9559;SDS011;4818;50.860;4.648;2022-07-04T11:27:01;3.13;;;1.95;;
9559;SDS011;4818;50.860;4.648;2022-07-04T11:29:28;4.88;;;1.92;;
9559;SDS011;4818;50.860;4.648;2022-07-04T11:31:55;5.50;;;1.90;;
9559;SDS011;4818;50.860;4.648;2022-07-04T11:34:22;2.75;;;1.58;;
9559;SDS011;4818;50.860;4.648;2022-07-04T11:36:49;9.18;;;1.40;;
9559;SDS011;4818;50.860;4.648;2022-07-04T11:39:19;3.05;;;1.20;;
9559;SDS011;4818;50.860;4.648;2022-07-04T11:41:52;4.43;;;1.42;;
9559;SDS011;4818;50.860;4.648;2022-07-04T11:44:41;2.33;;;1.08;;
9559;SDS011;4818;50.860;4.648;2022-07-04T11:47:39;1.92;;;0.50;;
9559;SDS011;4818;50.860;4.648;2022-07-04T11:50:14;1.38;;;0.32;;
9559;SDS011;4818;50.860;4.648;2022-07-04T11:52:43;1.48;;;0.32;;
9559;SDS011;4818;50.860;4.648;2022-07-04T11:55:10;1.20;;;0.30;;
9559;SDS011;4818;50.860;4.648;2022-07-04T11:57:38;4.47;;;0.30;;
9559;SDS011;4818;50.860;4.648;2022-07-04T12:02:31;1.95;;;0.20;;
9559;SDS011;4818;50.860;4.648;2022-07-04T12:05:00;1.75;;;0.22;;
9559;SDS011;4818;50.860;4.648;2022-07-04T12:10:05;2.28;;;0.20;;
9559;SDS011;4818;50.860;4.648;2022-07-04T12:12:33;4.25;;;0.30;;
9559;SDS011;4818;50.860;4.648;2022-07-04T12:15:07;1.38;;;0.20;;
9559;SDS011;4818;50.860;4.648;2022-07-04T12:17:35;2.33;;;0.30;;
9559;SDS011;4818;50.860;4.648;2022-07-04T12:20:03;2.78;;;0.20;;
9559;SDS011;4818;50.860;4.648;2022-07-04T12:22:37;1.02;;;0.20;;
9559;SDS011;4818;50.860;4.648;2022-07-04T12:25:05;1.60;;;0.25;;
9559;SDS011;4818;50.860;4.648;2022-07-04T12:27:32;4.57;;;0.20;;
9559;SDS011;4818;50.860;4.648;2022-07-04T12:29:59;3.42;;;0.20;;
9559;SDS011;4818;50.860;4.648;2022-07-04T12:32:47;1.23;;;0.30;;
9559;SDS011;4818;50.860;4.648;2022-07-04T12:38:05;2.15;;;0.35;;
9559;SDS011;4818;50.860;4.648;2022-07-04T12:40:32;1.38;;;0.32;;
9559;SDS011;4818;50.860;4.648;2022-07-04T12:42:58;0.80;;;0.17;;
9559;SDS011;4818;50.860;4.648;2022-07-04T12:45:25;3.80;;;0.28;;
9559;SDS011;4818;50.860;4.648;2022-07-04T12:47:52;2.95;;;0.60;;
9559;SDS011;4818;50.860;4.648;2022-07-04T12:50:26;1.63;;;0.57;;
9559;SDS011;4818;50.860;4.648;2022-07-04T12:52:52;1.02;;;0.30;;
9559;SDS011;4818;50.860;4.648;2022-07-04T12:55:19;1.25;;;0.20;;
9559;SDS011;4818;50.860;4.648;2022-07-04T12:57:45;1.95;;;0.10;;
9559;SDS011;4818;50.860;4.648;2022-07-04T13:00:11;3.83;;;0.28;;
9559;SDS011;4818;50.860;4.648;2022-07-04T13:02:41;1.50;;;0.25;;
9559;SDS011;4818;50.860;4.648;2022-07-04T13:05:07;0.40;;;0.15;;
9559;SDS011;4818;50.860;4.648;2022-07-04T13:07:33;1.10;;;0.10;;
9559;SDS011;4818;50.860;4.648;2022-07-04T13:10:00;1.25;;;0.20;;
9559;SDS011;4818;50.860;4.648;2022-07-04T13:12:26;1.30;;;0.20;;
9559;SDS011;4818;50.860;4.648;2022-07-04T13:14:54;2.35;;;0.20;;
9559;SDS011;4818;50.860;4.648;2022-07-04T13:17:21;6.60;;;0.35;;
9559;SDS011;4818;50.860;4.648;2022-07-04T13:19:48;1.77;;;0.38;;
9559;SDS011;4818;50.860;4.648;2022-07-04T13:22:14;4.13;;;0.75;;
9559;SDS011;4818;50.860;4.648;2022-07-04T13:24:40;0.88;;;0.20;;
9559;SDS011;4818;50.860;4.648;2022-07-04T13:27:06;1.80;;;0.30;;
9559;SDS011;4818;50.860;4.648;2022-07-04T13:29:33;0.88;;;0.20;;
9559;SDS011;4818;50.860;4.648;2022-07-04T13:31:59;0.63;;;0.20;;
9559;SDS011;4818;50.860;4.648;2022-07-04T13:34:25;0.60;;;0.10;;
9559;SDS011;4818;50.860;4.648;2022-07-04T13:36:52;1.17;;;0.28;;
9559;SDS011;4818;50.860;4.648;2022-07-04T13:39:20;1.75;;;0.10;;
9559;SDS011;4818;50.860;4.648;2022-07-04T13:41:46;4.78;;;0.20;;
9559;SDS011;4818;50.860;4.648;2022-07-04T13:44:12;12.10;;;0.30;;
9559;SDS011;4818;50.860;4.648;2022-07-04T13:46:41;0.95;;;0.20;;
9559;SDS011;4818;50.860;4.648;2022-07-04T13:49:07;1.50;;;0.20;;
9559;SDS011;4818;50.860;4.648;2022-07-04T13:51:36;3.30;;;0.28;;
9559;SDS011;4818;50.860;4.648;2022-07-04T13:54:03;0.73;;;0.20;;
9559;SDS011;4818;50.860;4.648;2022-07-04T13:56:29;2.50;;;0.30;;
9559;SDS011;4818;50.860;4.648;2022-07-04T13:58:56;1.33;;;0.20;;
9559;SDS011;4818;50.860;4.648;2022-07-04T14:01:23;3.45;;;0.20;;
9559;SDS011;4818;50.860;4.648;2022-07-04T14:03:52;1.48;;;0.20;;
9559;SDS011;4818;50.860;4.648;2022-07-04T14:06:18;0.60;;;0.15;;
9559;SDS011;4818;50.860;4.648;2022-07-04T14:08:45;3.53;;;0.20;;
9559;SDS011;4818;50.860;4.648;2022-07-04T14:11:11;1.05;;;0.20;;
9559;SDS011;4818;50.860;4.648;2022-07-04T14:13:37;1.20;;;0.20;;
9559;SDS011;4818;50.860;4.648;2022-07-04T14:16:05;0.50;;;0.10;;
9559;SDS011;4818;50.860;4.648;2022-07-04T14:18:34;1.00;;;0.35;;
9559;SDS011;4818;50.860;4.648;2022-07-04T14:21:00;0.50;;;0.20;;
9559;SDS011;4818;50.860;4.648;2022-07-04T14:23:27;2.67;;;0.20;;
9559;SDS011;4818;50.860;4.648;2022-07-04T14:26:05;1.25;;;0.10;;
9559;SDS011;4818;50.860;4.648;2022-07-04T14:28:32;0.68;;;0.10;;
9559;SDS011;4818;50.860;4.648;2022-07-04T14:30:58;0.80;;;0.10;;
9559;SDS011;4818;50.860;4.648;2022-07-04T14:33:24;0.55;;;0.10;;
9559;SDS011;4818;50.860;4.648;2022-07-04T14:35:51;1.55;;;0.10;;
9559;SDS011;4818;50.860;4.648;2022-07-04T14:38:17;1.20;;;0.10;;
9559;SDS011;4818;50.860;4.648;2022-07-04T14:40:43;1.40;;;0.10;;
9559;SDS011;4818;50.860;4.648;2022-07-04T14:43:11;1.83;;;0.10;;
9559;SDS011;4818;50.860;4.648;2022-07-04T14:45:38;1.02;;;0.10;;
9559;SDS011;4818;50.860;4.648;2022-07-04T14:48:04;1.00;;;0.10;;
9559;SDS011;4818;50.860;4.648;2022-07-04T14:50:31;2.13;;;0.20;;
9559;SDS011;4818;50.860;4.648;2022-07-04T14:52:57;2.20;;;0.20;;
9559;SDS011;4818;50.860;4.648;2022-07-04T14:55:23;0.63;;;0.10;;
9559;SDS011;4818;50.860;4.648;2022-07-04T14:57:49;1.38;;;0.10;;
9559;SDS011;4818;50.860;4.648;2022-07-04T15:00:16;0.50;;;0.10;;
9559;SDS011;4818;50.860;4.648;2022-07-04T15:02:42;1.38;;;0.20;;
9559;SDS011;4818;50.860;4.648;2022-07-04T15:05:11;1.50;;;0.10;;
9559;SDS011;4818;50.860;4.648;2022-07-04T15:07:38;0.47;;;0.20;;
9559;SDS011;4818;50.860;4.648;2022-07-04T15:10:05;0.60;;;0.20;;
9559;SDS011;4818;50.860;4.648;2022-07-04T15:12:34;1.85;;;0.20;;
9559;SDS011;4818;50.860;4.648;2022-07-04T15:15:01;1.92;;;0.40;;
9559;SDS011;4818;50.860;4.648;2022-07-04T15:17:27;1.13;;;0.13;;
9559;SDS011;4818;50.860;4.648;2022-07-04T15:19:53;0.52;;;0.13;;
9559;SDS011;4818;50.860;4.648;2022-07-04T15:22:38;2.03;;;0.20;;
9559;SDS011;4818;50.860;4.648;2022-07-04T15:25:22;1.92;;;0.20;;
9559;SDS011;4818;50.860;4.648;2022-07-04T15:27:49;1.77;;;0.20;;
9559;SDS011;4818;50.860;4.648;2022-07-04T15:30:16;1.00;;;0.20;;
9559;SDS011;4818;50.860;4.648;2022-07-04T15:32:43;1.52;;;0.20;;
9559;SDS011;4818;50.860;4.648;2022-07-04T15:35:09;1.40;;;0.10;;
9559;SDS011;4818;50.860;4.648;2022-07-04T15:37:35;1.25;;;0.20;;
9559;SDS011;4818;50.860;4.648;2022-07-04T15:40:01;0.95;;;0.20;;
9559;SDS011;4818;50.860;4.648;2022-07-04T15:42:28;3.67;;;0.20;;
9559;SDS011;4818;50.860;4.648;2022-07-04T15:44:56;1.48;;;0.20;;
9559;SDS011;4818;50.860;4.648;2022-07-04T15:47:22;0.93;;;0.20;;